Graham, Missouri
Current Conditions -  °F | °C
As of 10:53 PM on Sunday 21 Dec 2014 (Local Time) from KFNB Reporting Station
Haze Haze  
Wind Chill: 37°   Ceiling: 700
Heat Index: 44°   Visibility: 5mi
Dew Point: 41°   Wind: 14mph
Humidity: 89%   Direction: 170°S
Pressure: 29.7"   Gusts: NA
Location:  40.2°N, 95.04°W
Report Text: KFNB 220453Z AUTO 17012KT 5SM BR OVC007 07/05 A2970 RMK AO2 SLP061 T00670050
Loading
Personal Weather Stations






























Interactive Weather Map New forecast layout! Learn more

10-Day Weather Forecast

Advertisements
Track Severe Weather on mobile